Time;durP1;ratioP1;P1;durP2;ratioP2;P2;SDS_P1;SDS_P2;PMS_P1;PMS_P2;Temp;Humidity;BMP_temperature;BMP_pressure;BME280_temperature;BME280_humidity;BME280_pressure;Samples;Min_cycle;Max_cycle;Signal;HPM_P1;HPM_P2
2023/02/12 00:01:39;;;;;;;2.10;1.20;;;;;;;9.37;55.77;101290.79;145144;1261;97973;-90
2023/02/12 00:05:01;;;;;;;1.50;1.00;;;;;;;9.31;55.60;101300.77;145103;1256;107289;-89
2023/02/12 00:08:23;;;;;;;1.00;0.60;;;;;;;9.29;55.50;101305.87;144931;1262;98829;-88
2023/02/12 00:11:47;;;;;;;1.80;0.80;;;;;;;9.28;55.63;101316.00;144864;1260;98005;-92
2023/02/12 00:15:10;;;;;;;3.80;1.00;;;;;;;9.27;55.69;101319.27;144840;1265;98102;-87
2023/02/12 00:18:32;;;;;;;1.70;0.80;;;;;;;9.26;55.41;101328.11;145004;1260;97906;-89
2023/02/12 00:21:54;;;;;;;1.40;0.90;;;;;;;9.25;55.33;101334.14;144991;1256;98544;-85
2023/02/12 00:25:17;;;;;;;3.10;1.30;;;;;;;9.24;55.29;101348.30;145233;1274;98804;-87
2023/02/12 00:28:40;;;;;;;1.10;0.80;;;;;;;9.22;55.12;101352.58;144964;1260;98795;-90
2023/02/12 00:32:01;;;;;;;2.30;0.90;;;;;;;9.17;55.02;101361.38;145268;1256;98411;-87
2023/02/12 00:35:23;;;;;;;2.30;0.90;;;;;;;9.15;54.92;101366.15;145002;1264;97917;-90
2023/02/12 00:38:46;;;;;;;1.80;0.90;;;;;;;9.14;54.83;101364.20;145226;1256;97964;-90
2023/02/12 00:42:08;;;;;;;1.00;0.90;;;;;;;9.15;54.99;101365.24;144962;1260;98815;-89
2023/02/12 00:45:30;;;;;;;1.60;0.80;;;;;;;9.14;54.82;101359.98;144958;1257;111156;-87
2023/02/12 00:48:52;;;;;;;2.10;0.80;;;;;;;9.12;54.86;101364.27;144930;1257;98009;-90
2023/02/12 00:52:14;;;;;;;0.90;0.60;;;;;;;9.11;54.73;101372.19;145082;1259;99258;-90
2023/02/12 00:55:35;;;;;;;1.80;0.80;;;;;;;9.10;54.57;101380.27;144703;1256;102111;-87
2023/02/12 00:58:59;;;;;;;2.30;0.60;;;;;;;9.08;54.66;101384.39;144901;1260;101916;-91
2023/02/12 01:02:21;;;;;;;1.10;0.50;;;;;;;9.07;54.53;101392.63;144954;1261;97912;-89
2023/02/12 01:05:43;;;;;;;1.50;0.60;;;;;;;9.06;54.37;101389.98;145104;1260;98005;-87
2023/02/12 01:09:06;;;;;;;3.00;1.30;;;;;;;9.06;54.43;101401.95;144968;1260;108620;-90
2023/02/12 01:12:28;;;;;;;2.10;0.70;;;;;;;9.05;54.45;101411.46;144913;1260;97904;-88
2023/02/12 01:16:05;;;;;;;1.80;0.70;;;;;;;9.04;54.38;101416.42;145022;1260;99179;-87
2023/02/12 01:19:27;;;;;;;1.30;0.70;;;;;;;9.03;54.36;101416.39;145079;1260;98049;-88
2023/02/12 01:22:49;;;;;;;1.20;0.40;;;;;;;9.03;54.31;101424.86;145023;1260;98834;-87
2023/02/12 01:26:11;;;;;;;2.90;0.70;;;;;;;9.02;54.19;101432.98;145115;1258;98552;-84
2023/02/12 01:29:33;;;;;;;1.20;0.70;;;;;;;8.99;53.99;101440.13;144788;1260;97993;-88
2023/02/12 01:32:55;;;;;;;1.10;0.50;;;;;;;8.98;54.15;101440.08;144973;1261;97912;-91
2023/02/12 01:36:18;;;;;;;0.50;0.30;;;;;;;8.96;53.99;101450.23;145005;1256;98069;-86
2023/02/12 01:39:42;;;;;;;1.20;0.50;;;;;;;8.95;53.93;101455.23;144825;1262;112141;-89
2023/02/12 01:43:08;;;;;;;1.00;0.60;;;;;;;8.94;54.10;101461.59;145001;1260;97997;-88
2023/02/12 01:46:30;;;;;;;0.80;0.50;;;;;;;8.93;53.89;101462.56;145012;1256;111141;-85
2023/02/12 01:49:52;;;;;;;1.20;0.40;;;;;;;8.92;53.82;101462.50;145138;1260;98281;-91
2023/02/12 01:53:19;;;;;;;1.90;0.90;;;;;;;8.90;53.79;101457.56;144901;1256;98806;-90
2023/02/12 01:56:41;;;;;;;1.00;0.60;;;;;;;8.89;53.75;101456.48;145117;1256;101630;-88
2023/02/12 02:00:07;;;;;;;0.80;0.60;;;;;;;8.88;53.70;101468.58;144881;1263;97981;-86
2023/02/12 02:03:37;;;;;;;1.30;0.50;;;;;;;8.88;53.57;101473.93;145096;1256;102036;-86
2023/02/12 02:07:02;;;;;;;0.90;0.50;;;;;;;8.87;53.64;101484.81;144906;1262;103307;-88
2023/02/12 02:10:24;;;;;;;1.10;0.50;;;;;;;8.86;53.58;101488.41;145113;1258;101892;-89
2023/02/12 02:17:28;;;;;;;0.90;0.40;;;;;;;8.84;53.36;101496.84;145029;1260;100973;-88
2023/02/12 02:21:18;;;;;;;0.90;0.50;;;;;;;8.83;53.33;101507.31;144871;1260;97925;-89
2023/02/12 02:24:56;;;;;;;0.70;0.50;;;;;;;8.82;53.19;101507.27;144102;1270;102272;-85
2023/02/12 02:28:30;;;;;;;0.80;0.40;;;;;;;8.81;53.31;101508.29;144150;1267;102032;-90
2023/02/12 02:32:06;;;;;;;0.80;0.50;;;;;;;8.81;53.28;101533.03;144451;1265;102266;-91
2023/02/12 02:35:37;;;;;;;0.60;0.50;;;;;;;8.80;53.21;101541.52;144272;1267;102383;-91
2023/02/12 02:39:19;;;;;;;0.80;0.60;;;;;;;8.79;53.06;101548.04;144166;1267;103169;-89
2023/02/12 02:42:51;;;;;;;1.80;0.50;;;;;;;8.78;53.05;101547.98;144098;1270;102147;-87
2023/02/12 02:46:19;;;;;;;0.40;0.40;;;;;;;8.77;52.97;101555.55;144099;1267;102241;-88
2023/02/12 02:49:50;;;;;;;1.70;0.70;;;;;;;8.76;53.07;101555.52;144019;1267;102366;-87
2023/02/12 02:53:20;;;;;;;1.10;0.40;;;;;;;8.75;52.87;101562.77;143934;1268;102121;-88
2023/02/12 02:56:45;;;;;;;2.40;0.40;;;;;;;8.75;52.94;101573.01;144095;1270;102284;-87
2023/02/12 03:00:25;;;;;;;0.70;0.40;;;;;;;8.75;52.94;101579.94;144012;1259;102162;-85
2023/02/12 03:04:12;;;;;;;0.60;0.50;;;;;;;8.75;52.89;101591.52;144762;1257;102113;-87
2023/02/12 03:07:38;;;;;;;0.50;0.40;;;;;;;8.75;52.87;101601.91;144889;1260;102246;-89
2023/02/12 03:11:16;;;;;;;0.40;0.40;;;;;;;8.73;52.74;101610.02;145056;1260;102333;-88
2023/02/12 03:14:42;;;;;;;0.80;0.50;;;;;;;8.72;52.68;101619.48;144795;1262;103091;-87
2023/02/12 03:18:09;;;;;;;0.60;0.40;;;;;;;8.71;52.61;101635.55;145126;1257;102129;-88
2023/02/12 03:22:04;;;;;;;0.70;0.30;;;;;;;8.70;52.69;101640.35;144917;1257;103009;-82
2023/02/12 03:25:40;;;;;;;0.50;0.30;;;;;;;8.69;52.56;101640.46;144187;1268;100947;-88
2023/02/12 03:29:02;;;;;;;0.50;0.40;;;;;;;8.68;52.44;101638.82;144100;1267;103124;-89
2023/02/12 03:32:40;;;;;;;0.80;0.60;;;;;;;8.67;52.48;101641.39;143958;1267;98054;-85
2023/02/12 03:36:13;;;;;;;2.10;0.50;;;;;;;8.66;52.42;101660.38;144032;1265;102163;-85
2023/02/12 03:39:35;;;;;;;0.90;0.60;;;;;;;8.62;52.21;101661.41;144107;1267;102212;-88
2023/02/12 03:43:20;;;;;;;0.70;0.50;;;;;;;8.60;51.91;101668.91;144669;1269;98296;-90
2023/02/12 03:46:48;;;;;;;2.40;0.40;;;;;;;8.58;52.04;101675.39;144392;1282;102513;-89
2023/02/12 03:50:28;;;;;;;0.90;0.60;;;;;;;8.57;52.14;101683.14;144146;1270;101413;-89
2023/02/12 03:53:54;;;;;;;1.50;0.40;;;;;;;8.57;52.07;101688.00;144242;1265;102141;-87
2023/02/12 03:57:20;;;;;;;1.20;0.70;;;;;;;8.56;51.99;101699.57;144577;1270;102183;-91
2023/02/12 04:00:42;;;;;;;0.90;0.40;;;;;;;8.55;52.01;101708.54;144428;1262;102100;-84
2023/02/12 04:04:06;;;;;;;0.60;0.40;;;;;;;8.55;51.82;101713.73;145060;1257;97992;-91
2023/02/12 04:07:30;;;;;;;0.60;0.50;;;;;;;8.55;51.83;101711.29;144972;1257;102079;-86
2023/02/12 04:11:05;;;;;;;0.60;0.50;;;;;;;8.53;51.80;101712.08;144728;1260;98145;-88
2023/02/12 04:15:06;;;;;;;0.50;0.40;;;;;;;8.52;51.80;101721.89;145045;1257;102861;-85
2023/02/12 04:18:32;;;;;;;0.70;0.30;;;;;;;8.51;51.67;101722.19;144520;1265;102787;-87
2023/02/12 04:22:13;;;;;;;0.80;0.40;;;;;;;8.50;51.77;101730.45;144509;1266;102069;-88
2023/02/12 04:25:40;;;;;;;0.60;0.30;;;;;;;8.49;51.77;101726.58;144336;1267;102323;-86
2023/02/12 04:29:21;;;;;;;0.70;0.40;;;;;;;8.48;51.64;101729.64;144426;1268;102114;-89
2023/02/12 04:32:50;;;;;;;1.70;0.30;;;;;;;8.47;51.53;101737.23;144392;1267;102053;-88
2023/02/12 04:36:16;;;;;;;0.80;0.40;;;;;;;8.46;51.68;101738.04;145458;1256;101982;-85
2023/02/12 04:39:42;;;;;;;1.20;0.40;;;;;;;8.46;51.71;101738.71;145141;1256;102251;-90
2023/02/12 04:43:04;;;;;;;0.60;0.40;;;;;;;8.45;51.67;101738.15;144840;1261;102144;-89
2023/02/12 04:46:26;;;;;;;0.60;0.40;;;;;;;8.45;51.59;101743.36;144885;1262;98799;-86
2023/02/12 04:49:48;;;;;;;0.90;0.60;;;;;;;8.44;51.59;101743.83;145024;1257;98001;-87
2023/02/12 04:53:10;;;;;;;0.60;0.30;;;;;;;8.44;51.54;101748.30;144895;1256;108253;-88
2023/02/12 04:56:32;;;;;;;0.30;0.30;;;;;;;8.43;51.46;101757.45;144887;1257;97919;-87
2023/02/12 04:59:54;;;;;;;0.80;0.40;;;;;;;8.43;51.56;101760.41;145132;1262;98307;-84
2023/02/12 05:03:16;;;;;;;1.10;0.50;;;;;;;8.43;51.46;101761.09;144948;1270;97999;-88
2023/02/12 05:06:38;;;;;;;2.20;1.30;;;;;;;8.43;51.46;101775.79;145135;1262;97982;-88
2023/02/12 05:10:00;;;;;;;1.20;0.50;;;;;;;8.42;51.46;101783.73;144984;1262;98713;-88
2023/02/12 05:13:22;;;;;;;1.20;0.50;;;;;;;8.42;51.53;101788.55;144858;1260;99233;-86
2023/02/12 05:16:44;;;;;;;1.60;0.60;;;;;;;8.41;51.38;101795.30;144895;1262;98490;-85
2023/02/12 05:20:06;;;;;;;1.80;1.00;;;;;;;8.41;51.39;101801.15;145023;1262;98110;-87
2023/02/12 05:23:30;;;;;;;2.80;1.00;;;;;;;8.40;51.34;101809.79;144781;1256;109968;-87
2023/02/12 05:26:52;;;;;;;1.90;1.10;;;;;;;8.40;51.33;101815.47;144910;1259;112348;-88
2023/02/12 05:30:14;;;;;;;1.50;0.80;;;;;;;8.39;51.30;101815.45;145044;1262;97989;-88
2023/02/12 05:33:43;;;;;;;1.60;1.00;;;;;;;8.39;51.37;101811.29;144892;1261;111758;-87
2023/02/12 05:37:05;;;;;;;1.60;0.90;;;;;;;8.38;51.37;101816.11;144892;1260;98427;-86
2023/02/12 05:40:27;;;;;;;1.90;0.70;;;;;;;8.38;51.25;101828.02;145211;1256;97922;-82
2023/02/12 05:43:49;;;;;;;1.30;0.80;;;;;;;8.37;51.23;101832.13;145030;1262;99213;-87
2023/02/12 05:47:11;;;;;;;1.60;1.10;;;;;;;8.36;51.19;101841.42;145157;1262;102189;-84
2023/02/12 05:50:33;;;;;;;1.60;1.00;;;;;;;8.37;51.21;101846.97;144967;1257;99220;-88
2023/02/12 05:54:03;;;;;;;1.90;0.90;;;;;;;8.36;51.27;101855.44;144897;1263;103569;-86
2023/02/12 05:57:25;;;;;;;1.40;0.60;;;;;;;8.36;51.26;101858.36;145639;1260;102115;-85
2023/02/12 06:00:47;;;;;;;1.90;1.00;;;;;;;8.36;51.11;101863.55;144889;1261;98390;-84
2023/02/12 06:04:17;;;;;;;1.80;1.00;;;;;;;8.35;51.11;101868.71;145161;1260;97908;-87
2023/02/12 06:07:39;;;;;;;2.70;1.10;;;;;;;8.36;51.09;101877.40;145295;1256;107576;-85
2023/02/12 06:11:03;;;;;;;2.00;1.20;;;;;;;8.36;51.02;101885.39;144910;1262;98024;-87
2023/02/12 06:14:25;;;;;;;2.40;1.00;;;;;;;8.36;51.10;101895.62;144798;1259;98828;-88
2023/02/12 06:17:48;;;;;;;1.70;0.80;;;;;;;8.36;51.04;101900.80;144963;1261;99582;-86
2023/02/12 06:21:10;;;;;;;2.10;1.00;;;;;;;8.37;51.03;101906.95;144909;1261;98027;-88
2023/02/12 06:24:31;;;;;;;2.50;1.50;;;;;;;8.37;51.04;101910.45;144850;1262;97981;-88
2023/02/12 06:27:53;;;;;;;1.70;1.00;;;;;;;8.38;50.96;101907.05;145480;1256;99175;-88
2023/02/12 06:31:27;;;;;;;3.30;1.40;;;;;;;8.39;50.93;101916.12;146112;1262;97980;-85
2023/02/12 06:34:49;;;;;;;2.10;1.10;;;;;;;8.41;50.90;101920.22;145593;1256;97906;-89
2023/02/12 06:38:11;;;;;;;1.50;0.90;;;;;;;8.43;50.99;101920.67;145472;1261;97926;-88
2023/02/12 06:41:33;;;;;;;1.70;1.10;;;;;;;8.46;50.86;101921.35;145395;1262;97921;-92
2023/02/12 06:44:55;;;;;;;2.10;1.20;;;;;;;8.50;50.84;101922.79;145017;1263;111258;-87
2023/02/12 06:48:37;;;;;;;2.20;1.00;;;;;;;8.57;50.72;101925.23;145338;1263;111953;-89
2023/02/12 06:52:02;;;;;;;1.20;0.80;;;;;;;8.65;50.73;101923.33;146068;1262;111309;-89
2023/02/12 06:55:38;;;;;;;1.90;1.10;;;;;;;8.80;50.56;101926.20;145459;1256;111229;-90
2023/02/12 06:59:00;;;;;;;3.30;0.80;;;;;;;8.96;50.45;101928.67;145251;1261;98021;-91
2023/02/12 07:02:23;;;;;;;1.90;1.00;;;;;;;9.13;50.37;101930.60;145362;1257;98024;-88
2023/02/12 07:05:47;;;;;;;2.10;0.90;;;;;;;9.29;50.00;101939.66;145659;1261;101998;-89
2023/02/12 07:09:09;;;;;;;1.50;0.70;;;;;;;9.44;49.94;101941.49;145260;1265;101110;-89
2023/02/12 07:12:37;;;;;;;2.50;0.80;;;;;;;9.57;49.94;101944.23;145080;1261;97949;-79
2023/02/12 07:16:05;;;;;;;2.30;0.90;;;;;;;9.68;49.70;101949.18;144967;1264;100601;-89
2023/02/12 07:19:29;;;;;;;;;;;;;;;9.77;49.51;101960.05;144794;1259;101560;-88
2023/02/12 07:22:51;;;;;;;2.20;1.20;;;;;;;9.83;49.29;101964.55;145430;1258;97977;-85
2023/02/12 07:26:13;;;;;;;1.50;0.90;;;;;;;9.90;49.12;101969.09;147739;1259;98009;-90
2023/02/12 07:29:35;;;;;;;2.10;0.90;;;;;;;9.99;49.11;101966.01;145049;1264;107199;-84
2023/02/12 07:33:00;;;;;;;1.30;0.80;;;;;;;10.04;49.00;101963.36;145277;1263;107731;-88
2023/02/12 07:36:23;;;;;;;1.70;1.00;;;;;;;10.07;48.86;101963.34;145074;1260;98001;-86
2023/02/12 07:39:45;;;;;;;1.30;0.70;;;;;;;10.10;48.70;101953.91;145298;1265;97931;-89
2023/02/12 07:43:07;;;;;;;1.10;0.70;;;;;;;10.10;48.73;101955.16;144977;1262;97847;-88
2023/02/12 07:46:34;;;;;;;1.00;0.60;;;;;;;10.13;48.47;101953.75;145107;1259;98731;-80
2023/02/12 07:49:56;;;;;;;1.10;0.80;;;;;;;10.17;48.35;101958.09;145019;1263;98034;-85
2023/02/12 07:53:18;;;;;;;1.50;0.80;;;;;;;10.23;48.26;101970.55;145208;1259;97929;-88
2023/02/12 07:56:42;;;;;;;2.30;0.70;;;;;;;10.30;48.32;101973.38;145407;1263;98039;-84
2023/02/12 08:00:04;;;;;;;1.30;0.80;;;;;;;10.37;48.24;101978.24;145067;1259;97931;-88
2023/02/12 08:03:32;;;;;;;1.20;0.80;;;;;;;10.43;48.04;101977.36;145651;1259;97944;-89
2023/02/12 08:06:55;;;;;;;1.10;0.90;;;;;;;10.55;48.01;101982.80;145068;1262;97991;-86
2023/02/12 08:10:21;;;;;;;4.00;1.50;;;;;;;11.66;48.01;101989.30;144861;1259;99545;-88
2023/02/12 08:13:42;;;;;;;1.90;1.60;;;;;;;14.85;45.74;101995.16;145311;1263;112030;-88
2023/02/12 08:17:04;;;;;;;2.40;2.30;;;;;;;17.40;43.04;102003.16;145176;1265;97894;-87
2023/02/12 08:20:26;;;;;;;0.90;0.80;;;;;;;19.22;40.79;102014.05;144892;1265;97921;-87
2023/02/12 08:23:49;;;;;;;1.10;1.00;;;;;;;19.90;39.11;102019.54;144852;1264;103004;-88
2023/02/12 08:27:11;;;;;;;0.80;0.60;;;;;;;20.45;37.69;102022.77;144946;1263;98004;-88
2023/02/12 08:30:33;;;;;;;1.20;0.80;;;;;;;20.13;36.72;102027.55;145056;1263;98441;-87
2023/02/12 08:33:56;;;;;;;0.90;0.80;;;;;;;19.31;36.54;102028.81;145221;1262;108394;-87
2023/02/12 08:37:18;;;;;;;1.00;0.70;;;;;;;18.75;36.48;102025.14;146018;1257;97850;-89
2023/02/12 08:40:40;;;;;;;1.80;0.70;;;;;;;18.17;36.73;102029.41;145429;1262;97970;-89
2023/02/12 08:44:04;;;;;;;1.60;1.50;;;;;;;17.70;36.98;102027.24;145637;1262;97999;-88
2023/02/12 08:47:26;;;;;;;1.80;1.00;;;;;;;17.59;37.27;102022.77;147068;1261;98706;-86
2023/02/12 08:50:51;;;;;;;9.80;9.30;;;;;;;17.84;37.48;102016.24;146015;1262;99114;-88
2023/02/12 08:54:19;;;;;;;4.40;4.20;;;;;;;19.79;37.01;102013.17;145672;1256;98590;-87
2023/02/12 08:57:41;;;;;;;3.00;2.80;;;;;;;22.06;35.49;102015.00;145062;1262;97996;-86
2023/02/12 09:01:04;;;;;;;2.10;1.90;;;;;;;24.11;34.01;102031.20;145508;1262;97922;-91
2023/02/12 09:04:27;;;;;;;1.40;0.90;;;;;;;26.07;32.52;102042.61;145436;1257;99217;-85
2023/02/12 09:07:52;;;;;;;1.50;1.00;;;;;;;27.44;31.28;102053.34;145272;1262;98015;-85
2023/02/12 09:11:23;;;;;;;2.20;1.10;;;;;;;28.66;29.96;102058.70;145624;1261;97919;-88
2023/02/12 09:14:45;;;;;;;3.90;0.90;;;;;;;29.85;28.42;102055.98;145095;1261;99089;-86
2023/02/12 09:18:07;;;;;;;1.10;0.90;;;;;;;30.67;26.65;102060.76;145184;1264;99280;-85
2023/02/12 09:21:29;;;;;;;2.40;1.50;;;;;;;31.13;25.13;102060.62;145190;1262;98007;-84
2023/02/12 09:24:51;;;;;;;1.00;0.80;;;;;;;31.57;23.85;102069.64;145173;1262;98049;-85
2023/02/12 09:28:13;;;;;;;0.90;0.80;;;;;;;32.02;22.87;102080.52;145073;1263;98116;-86
2023/02/12 09:31:35;;;;;;;0.90;0.80;;;;;;;32.32;22.20;102082.38;145350;1257;98807;-85
2023/02/12 09:34:57;;;;;;;1.30;1.00;;;;;;;32.50;21.65;102084.53;145335;1259;102505;-86
2023/02/12 09:38:19;;;;;;;1.30;1.10;;;;;;;32.70;21.09;102087.30;145495;1257;98411;-85
2023/02/12 09:42:03;;;;;;;1.90;1.20;;;;;;;32.82;20.69;102088.23;145395;1260;97925;-83
2023/02/12 09:45:26;;;;;;;1.20;0.90;;;;;;;32.99;20.49;102093.13;145015;1260;115913;-86
2023/02/12 09:49:08;;;;;;;1.40;1.00;;;;;;;33.06;20.07;102095.16;145445;1261;98082;-84
2023/02/12 09:52:30;;;;;;;1.30;1.10;;;;;;;33.08;19.69;102102.13;145328;1259;99312;-85
2023/02/12 09:55:53;;;;;;;2.10;1.30;;;;;;;33.07;19.31;102103.98;145112;1261;97924;-85
2023/02/12 09:59:46;;;;;;;1.30;1.20;;;;;;;32.87;19.00;102097.02;145285;1260;98343;-85
2023/02/12 10:03:16;;;;;;;1.20;1.10;;;;;;;32.50;18.77;102103.27;145554;1257;97919;-84
2023/02/12 10:06:50;;;;;;;1.70;1.20;;;;;;;32.45;18.67;102105.45;145461;1260;98378;-85
2023/02/12 10:10:37;;;;;;;1.80;1.00;;;;;;;32.44;18.49;102098.29;145152;1257;98086;-85
2023/02/12 10:14:37;;;;;;;2.00;1.30;;;;;;;32.34;18.41;102095.61;145440;1256;98051;-85
2023/02/12 10:18:29;;;;;;;2.10;1.10;;;;;;;32.20;18.56;102095.45;145383;1261;97813;-85
2023/02/12 10:22:25;;;;;;;1.40;1.10;;;;;;;32.33;18.42;102098.16;145336;1261;97941;-86
2023/02/12 10:25:54;;;;;;;1.20;1.00;;;;;;;32.37;18.26;102095.48;145340;1259;97895;-83
2023/02/12 10:29:22;;;;;;;3.20;1.20;;;;;;;32.48;18.36;102095.06;145020;1262;102279;-85
2023/02/12 10:32:45;;;;;;;2.40;1.00;;;;;;;32.78;18.05;102098.13;145428;1257;97902;-87
2023/02/12 10:36:44;;;;;;;1.20;0.80;;;;;;;32.77;17.90;102093.13;145157;1263;97960;-85
2023/02/12 10:40:18;;;;;;;2.20;1.30;;;;;;;32.71;17.63;102087.65;145417;1260;98802;-85
2023/02/12 10:43:40;;;;;;;1.20;1.10;;;;;;;32.57;17.72;102080.45;145247;1266;99025;-84
2023/02/12 10:47:02;;;;;;;1.30;1.00;;;;;;;32.25;17.78;102085.34;145200;1260;97995;-84
2023/02/12 10:50:52;;;;;;;1.80;0.90;;;;;;;32.22;18.35;102091.63;145294;1270;98002;-89
2023/02/12 10:54:42;;;;;;;1.40;1.10;;;;;;;32.56;18.90;102096.71;145315;1263;99362;-86
2023/02/12 10:58:20;;;;;;;2.30;1.10;;;;;;;32.93;19.77;102090.67;145038;1261;99293;-87
2023/02/12 11:01:46;;;;;;;5.00;1.40;;;;;;;33.41;20.37;102092.55;145186;1269;98771;-89
2023/02/12 11:05:31;;;;;;;6.10;1.60;;;;;;;33.73;20.51;102103.00;145194;1261;98843;-86
2023/02/12 11:08:57;;;;;;;8.00;1.70;;;;;;;33.70;20.82;102101.33;145392;1260;99291;-87
2023/02/12 11:12:20;;;;;;;6.00;1.60;;;;;;;33.31;21.26;102089.91;145276;1260;98550;-90
2023/02/12 11:15:47;;;;;;;8.60;1.50;;;;;;;32.74;21.49;102090.73;144960;1261;98871;-88
2023/02/12 11:19:24;;;;;;;9.10;1.60;;;;;;;32.27;22.13;102099.15;145132;1279;98960;-91
2023/02/12 11:23:05;;;;;;;2.00;1.00;;;;;;;31.55;22.72;102094.48;145612;1263;99899;-91
2023/02/12 11:26:28;;;;;;;7.10;1.20;;;;;;;31.15;23.29;102103.84;145130;1263;98549;-89
2023/02/12 11:30:09;;;;;;;2.80;1.50;;;;;;;30.98;23.34;102099.41;144795;1263;98519;-88
2023/02/12 11:33:35;;;;;;;7.20;1.20;;;;;;;30.79;23.56;102088.72;144869;1266;98831;-90
2023/02/12 11:36:58;;;;;;;6.30;1.40;;;;;;;30.59;23.72;102083.62;144931;1273;98901;-90
2023/02/12 11:40:28;;;;;;;6.50;1.70;;;;;;;30.51;23.90;102077.44;144972;1257;97999;-89
2023/02/12 11:43:50;;;;;;;2.60;1.50;;;;;;;30.46;23.94;102069.71;144779;1263;98955;-88
2023/02/12 11:47:20;;;;;;;2.20;1.80;;;;;;;30.34;23.89;102062.91;144931;1261;98010;-89
2023/02/12 11:50:47;;;;;;;3.50;1.50;;;;;;;30.34;23.64;102064.55;144935;1265;100301;-89
2023/02/12 11:54:14;;;;;;;;;;;;;;;30.29;23.72;102057.19;144938;1264;99704;-88
2023/02/12 11:57:42;;;;;;;2.80;1.70;;;;;;;30.25;23.50;102053.90;145000;1263;99102;-89
2023/02/12 12:01:32;;;;;;;1.50;1.40;;;;;;;30.30;23.24;102058.02;144877;1260;98616;-91
2023/02/12 12:05:02;;;;;;;2.20;1.60;;;;;;;30.36;23.52;102057.48;145023;1264;99036;-90
2023/02/12 12:08:39;;;;;;;4.60;1.50;;;;;;;30.41;23.45;102061.29;144768;1264;99747;-89
2023/02/12 12:12:10;;;;;;;5.10;2.10;;;;;;;30.42;23.50;102065.71;144953;1260;98922;-89
2023/02/12 12:23:24;;;;;;;2.20;1.70;;;;;;;30.39;23.20;102043.95;145005;1257;98859;-89
2023/02/12 12:26:50;;;;;;;1.30;1.10;;;;;;;30.28;22.84;102035.67;145185;1268;98857;-88
2023/02/12 12:30:43;;;;;;;1.50;1.20;;;;;;;29.97;22.60;102034.50;144846;1267;99767;-89
2023/02/12 12:34:17;;;;;;;3.50;1.50;;;;;;;29.58;22.97;102035.81;145129;1257;99787;-90
2023/02/12 12:38:04;;;;;;;2.20;2.00;;;;;;;29.05;22.66;102029.61;145300;1260;98878;-89
2023/02/12 12:41:29;;;;;;;2.50;2.10;;;;;;;28.28;22.44;102020.99;145332;1257;99711;-88
2023/02/12 12:45:19;;;;;;;4.10;2.50;;;;;;;27.45;22.41;102022.08;145919;1256;98033;-88
2023/02/12 12:49:13;;;;;;;2.70;2.00;;;;;;;26.68;22.37;102015.67;145663;1258;98881;-86
2023/02/12 12:52:58;;;;;;;2.80;2.40;;;;;;;25.98;22.43;102012.11;145823;1265;99790;-85
2023/02/12 12:56:51;;;;;;;2.70;2.50;;;;;;;25.46;22.60;102013.15;145703;1257;98821;-89
2023/02/12 13:00:31;;;;;;;5.10;2.90;;;;;;;25.07;22.70;102003.09;145527;1257;99796;-88
2023/02/12 13:04:16;;;;;;;3.70;2.70;;;;;;;24.72;23.12;101997.55;145559;1256;107245;-88
2023/02/12 13:08:02;;;;;;;3.30;2.50;;;;;;;24.47;22.98;101999.55;145500;1258;100163;-86
2023/02/12 13:11:36;;;;;;;5.00;3.50;;;;;;;24.19;22.99;102000.44;145450;1256;108032;-86
2023/02/12 13:15:28;;;;;;;3.50;3.20;;;;;;;24.04;23.31;101996.46;145340;1257;107214;-88
2023/02/12 13:18:55;;;;;;;3.50;3.20;;;;;;;23.91;23.21;101994.59;145772;1260;98984;-86
2023/02/12 13:22:39;;;;;;;4.70;3.90;;;;;;;23.74;23.27;101993.45;145584;1259;106545;-88
2023/02/12 13:26:31;;;;;;;3.30;2.80;;;;;;;23.54;23.51;101990.84;145682;1257;108843;-82
2023/02/12 13:29:59;;;;;;;3.80;3.10;;;;;;;23.31;23.90;101992.90;145436;1260;108476;-82
2023/02/12 13:33:33;;;;;;;4.00;3.10;;;;;;;23.05;23.98;101989.60;145484;1256;107418;-83
2023/02/12 13:36:56;;;;;;;4.10;3.30;;;;;;;22.76;24.33;101987.14;145201;1260;108178;-82
2023/02/12 13:40:23;;;;;;;5.90;3.10;;;;;;;22.47;24.36;101993.52;145202;1257;98089;-82
2023/02/12 13:44:03;;;;;;;3.60;2.80;;;;;;;22.19;24.41;101996.15;145795;1256;105922;-82
2023/02/12 13:47:42;;;;;;;3.40;2.80;;;;;;;21.93;24.74;101996.09;145243;1261;107710;-82
2023/02/12 13:51:09;;;;;;;4.90;3.00;;;;;;;21.64;25.08;101991.92;145526;1260;107643;-81
2023/02/12 13:55:06;;;;;;;3.30;2.90;;;;;;;21.39;24.95;101989.52;145297;1257;107457;-82
2023/02/12 13:58:31;;;;;;;3.50;2.70;;;;;;;20.99;25.12;101983.45;145460;1257;108429;-82
2023/02/12 14:01:53;;;;;;;3.30;2.70;;;;;;;20.64;25.38;101979.48;145333;1257;107361;-82
2023/02/12 14:05:32;;;;;;;3.80;2.70;;;;;;;20.34;25.55;101977.63;145397;1260;99211;-82
2023/02/12 14:09:08;;;;;;;9.00;3.90;;;;;;;20.03;25.81;101980.85;145457;1258;107229;-82
2023/02/12 14:12:33;;;;;;;4.90;3.50;;;;;;;19.69;26.08;101984.36;145387;1261;106678;-82
2023/02/12 14:15:57;;;;;;;4.90;3.30;;;;;;;19.36;26.24;101986.05;145377;1257;107472;-82
2023/02/12 14:19:55;;;;;;;7.30;3.20;;;;;;;19.05;26.57;101990.39;145558;1261;107617;-81
2023/02/12 14:23:29;;;;;;;4.90;3.20;;;;;;;18.70;26.82;101983.86;145542;1257;106548;-81
2023/02/12 14:26:53;;;;;;;5.00;3.10;;;;;;;18.52;28.29;101979.51;145347;1259;106503;-83
2023/02/12 14:30:15;;;;;;;3.40;2.70;;;;;;;18.35;28.14;101973.23;145296;1257;99206;-81
2023/02/12 14:33:40;;;;;;;5.10;3.30;;;;;;;18.00;28.10;101976.30;145595;1260;97911;-82
2023/02/12 14:37:11;;;;;;;3.40;3.00;;;;;;;17.60;28.49;101976.03;145510;1260;97975;-83
2023/02/12 14:40:33;;;;;;;3.80;2.60;;;;;;;17.19;28.81;101969.00;145353;1257;97903;-82
2023/02/12 14:44:26;;;;;;;5.50;3.20;;;;;;;16.82;29.03;101968.70;145590;1260;97861;-82
2023/02/12 14:47:50;;;;;;;3.60;2.80;;;;;;;16.43;29.37;101965.27;145529;1257;99146;-84
2023/02/12 14:51:37;;;;;;;4.70;2.80;;;;;;;16.08;29.85;101962.96;145215;1260;97935;-84
2023/02/12 14:55:02;;;;;;;4.00;2.70;;;;;;;15.71;30.16;101973.16;145295;1260;97935;-82
2023/02/12 14:58:29;;;;;;;3.50;2.70;;;;;;;15.39;30.54;101974.00;145338;1263;98084;-82
2023/02/12 15:01:52;;;;;;;4.70;2.80;;;;;;;15.08;30.85;101971.50;145500;1260;97919;-85
2023/02/12 15:05:52;;;;;;;8.00;3.00;;;;;;;14.80;31.30;101974.13;145435;1257;98252;-80
2023/02/12 15:09:21;;;;;;;5.10;3.10;;;;;;;14.77;32.05;101972.27;144505;1263;98013;-82
2023/02/12 15:12:52;;;;;;;4.50;2.70;;;;;;;14.93;32.90;101975.05;144640;1268;98945;-83
2023/02/12 15:16:31;;;;;;;5.70;3.40;;;;;;;14.93;33.25;101975.42;144638;1263;97930;-82
2023/02/12 15:20:05;;;;;;;9.00;3.00;;;;;;;14.95;33.57;101975.29;144568;1270;98101;-83
2023/02/12 15:23:33;;;;;;;4.50;3.20;;;;;;;14.95;33.75;101984.42;144909;1268;98028;-84
2023/02/12 15:26:57;;;;;;;3.80;2.80;;;;;;;14.94;34.18;101984.02;144900;1264;98128;-83
2023/02/12 15:30:23;;;;;;;4.60;2.70;;;;;;;14.92;34.49;101985.86;144924;1268;98031;-84
2023/02/12 15:33:51;;;;;;;4.00;3.60;;;;;;;14.87;34.82;101988.35;144836;1264;98461;-82
2023/02/12 15:37:21;;;;;;;5.00;3.50;;;;;;;14.78;35.11;101989.80;144732;1263;97948;-81
2023/02/12 15:40:53;;;;;;;4.90;3.30;;;;;;;14.69;35.28;101994.59;144745;1267;98587;-84
2023/02/12 15:44:18;;;;;;;4.80;3.50;;;;;;;14.60;35.40;101997.30;144710;1268;97988;-84
2023/02/12 15:47:41;;;;;;;7.70;4.10;;;;;;;14.52;35.68;101997.17;145400;1259;97915;-83
2023/02/12 15:51:27;;;;;;;5.20;3.30;;;;;;;14.45;35.85;101998.85;145419;1256;98638;-84
2023/02/12 15:54:49;;;;;;;5.10;3.20;;;;;;;14.39;36.15;101999.69;145487;1257;97986;-83
2023/02/12 15:58:47;;;;;;;4.80;3.70;;;;;;;14.29;36.17;101994.80;145249;1257;98017;-83
2023/02/12 16:02:24;;;;;;;4.50;4.10;;;;;;;14.12;36.53;101993.52;145552;1260;98619;-84
2023/02/12 16:05:48;;;;;;;4.80;3.30;;;;;;;14.03;36.62;101993.38;144891;1256;98026;-83
2023/02/12 16:09:26;;;;;;;5.40;4.00;;;;;;;13.99;36.75;101990.98;145138;1260;97997;-84
2023/02/12 16:12:49;;;;;;;4.50;2.80;;;;;;;13.94;36.90;101986.08;144865;1260;98021;-85
2023/02/12 16:16:11;;;;;;;4.70;3.60;;;;;;;13.89;36.84;101983.27;145024;1262;97973;-84